默认 日期 大小 文件数 浏览量 最新下载 xml
fire 2020磁力链接相关资源由用户搜索指令自动获取,结果来源于网络,本站不存储任何资料,亦不承担任何责任,请于24小时内删除,搜索到807个磁力,用时12ms。
    {"www.YTS.MX.jpg": 53226, "YIFYStatus.com.txt": 358, "Between.Fire.And.Water.2020.SPANISH.1080p.WEBRip.x264.AAC-[YTS.MX].mp4": 1653057751, "Between.Fire.And.Water.2020.SPANISH.1080p.WEBRip.x264.AAC-[YTS.MX].srt": 46552}
创建时间: 2023-08-26 22:19:10 大小:1.54 GB 文件数量:4 热度:3 最近下载:2025-01-26 21:06:11
    {"www.YTS.MX.jpg": 53226, "YTSYifyUP... (TOR).txt": 583, "Icelands.Fire.And.Ice.2020.720p.WEBRip.x264.AAC-[YTS.MX].mp4": 424332166, "Icelands.Fire.And.Ice.2020.720p.WEBRip.x264.AAC-[YTS.MX].srt": 52126}
创建时间: 2023-09-09 17:37:56 大小:404.78 MB 文件数量:4 热度:1 最近下载:2025-02-03 02:55:03
    {"BDMV": {"JAR": {"00000": {"map.txt": 18, "main.0.aca": 3900, "main.1.png": 120}}, "META": {"DL": {"bdmt_eng.xml": 523, "Image_Large.jpg": 155242, "Image_Small.jpg": 76068}}, "BACKUP": {"JAR": {"00000": {"map.txt": 18, "main.0.aca": 3900, "main.1.png": ...
创建时间: 2023-09-10 22:49:50 大小:44.46 GB 文件数量:123 热度:4 最近下载:2025-01-15 07:50:02
    {"www.YTS.MX.jpg": 53226, "YIFYStatus.com.txt": 584, "Icelands.Fire.And.Ice.2020.1080p.WEBRip.x264.AAC-[YTS.MX].mp4": 787281381, "Icelands.Fire.And.Ice.2020.1080p.WEBRip.x264.AAC-[YTS.MX].srt": 52126}
创建时间: 2023-09-12 22:41:28 大小:750.91 MB 文件数量:4 热度:1 最近下载:2025-01-18 12:51:02
    ... ": 8765, "The.A-Team.S03E04.Fire.1080p.BluRay.DDP.2.0 ... -team.-s-03-e-04.-fire.-1080p.-blu-ray.-ddp.-2 ... -team.-s-03-e-04.-fire.-1080p.-blu-ray.-ddp.-2 ...
创建时间: 2023-09-23 07:29:11 大小:266.03 MB 文件数量:4 热度:3 最近下载:2025-05-16 13:49:02
    ... "heavy-fire-black-arms-usa-wii-ware-2020-03-24 ... "heavy-fire-black-arms-usa-wii-ware-2020-03-24 ... "heavy-fire-black-arms-usa-wii-ware-2020-03-24 ... "heavy-fire-black-arms-usa-wii-ware-2020-03-24 ... UTC).wad": 13649600, "Heavy Fire - Special Operations (Europe) ( ...
创建时间: 2023-10-25 17:27:25 大小:1.5 GB 文件数量:73 热度:14 最近下载:2025-07-09 02:21:02
    {"Torrent Downloaded From Torrenting.com.txt": 84, "Eurovision.Song.Contest.The.Story.of.Fire.Saga.2020.1080p.WEBRip.x265.mp4": 2067265767, "Eurovision.Song.Contest.The.Story.of.Fire.Saga.2020.1080p.WEBRip.x265.mp4.nfo": 5891}
创建时间: 2023-12-30 15:36:25 大小:1.93 GB 文件数量:3 热度:5 最近下载:2025-08-29 20:30:04
    {"Torrent Downloaded From Torrenting.com.txt": 84, "Eurovision.Song.Contest.The.Story.Of.Fire.Saga.2020.720p.NF.WEB-DL.DDP5.1.X264-NTG.mkv": 4603142021, "Eurovision.Song.Contest.The.Story.Of.Fire.Saga.2020.720p.NF.WEB-DL.DDP5.1.X264-NTG.mkv.nfo": 16042}
创建时间: 2024-02-17 18:43:54 大小:4.29 GB 文件数量:3 热度:9 最近下载:2025-08-29 20:30:02
    ... .mp4": 147837385, "Pot.of.Fire.S01E02.2020.1080p.WEB-DL.H264.AAC ... .mp4": 307968434, "Pot.of.Fire.S01E03.2020.1080p.WEB-DL.H264.AAC ... .mp4": 270168059, "Pot.of.Fire.S01E04.2020.1080p.WEB-DL.H264.AAC ... .mp4": 261569083, "Pot.of.Fire.S01E05.2020.1080p.WEB-DL.H264.AAC ...
创建时间: 2024-04-22 19:04:22 大小:2.27 GB 文件数量:12 热度:15 最近下载:2025-10-12 10:39:03
    ... End In Mind - Tides Of Fire - CD.jpg": 2465933, "With ... End In Mind - Tides Of Fire - Matrix.jpg": 955079, "With ... End In Mind - Tides Of Fire - Digi Side A.jpg": ... End In Mind - Tides Of Fire - Digi Side B.jpg": ... End In Mind - Tides Of Fire.log": 4602, "With The ...
创建时间: 2024-09-28 15:24:07 大小:296.2 MB 文件数量:8 热度:4 最近下载:2025-09-17 17:59:04
    {"cover.png": 1924628, "2. Topo & Roby - Set on Fire (Radio Version) .flac": 22339173, "3. Topo & Roby - Set on Fire (Instrumental) ].flac": 27022006, "1. Topo & Roby - Set on Fire (Extended Version) .flac": 41727988}
创建时间: 2024-10-07 19:43:41 大小:88.7 MB 文件数量:4 热度:3 最近下载:2025-01-27 04:16:16
    ... Hacks, 2020": {"Vardamir I. Survival Hacks - Preppers Gear, Shelter, Knots, Fire And ... Traps Guide For Wilderness And Disasters Survival, 2020.pdf ... , Knots, Fire And Traps Guide For Wilderness And Disasters Survival, 2020.epub ...
创建时间: 2024-10-09 18:34:49 大小:26.28 MB 文件数量:2 热度:11 最近下载:2025-09-21 04:57:02
    ... of Swords. The Illustrated Edition - 2020.epub": 77227635}
创建时间: 2025-02-23 19:22:53 大小:187.27 MB 文件数量:3 热度:6 最近下载:2025-04-13 03:28:02
    {"Descargar Películas, Series y Animes Gratis....url": 50, "Eurovision.song.contest.the.story.of.fire.saga.2020.1080P-Dual-Lat.mp4": 2122060918}
创建时间: 2025-02-28 15:38:51 大小:1.98 GB 文件数量:2 热度:3 最近下载:2025-08-29 20:30:04
    ... Live at Milton Keynes Bowl) – 2020 Remaster).flac": 52347076, "01. ... Live at Milton Keynes Bowl) – 2020 Remaster).flac": 67591889, "04. ... at Milton Keynes Bowl) – 2020 Remaster).flac": 55815525, "05. ... at Milton Keynes Bowl) – 2020 Remaster).flac": 37685172, "16. ...
创建时间: 2025-04-19 15:57:52 大小:838.34 MB 文件数量:21 热度:4 最近下载:2025-09-19 05:44:03
    ... 1821252, "Fire Force S02 (2020).sfv": 2031, "Fire Force S02E01 ... Punisher694.mkv": 689665711, "Fire Force S02E02 MULTi 1080p 10bits ... Punisher694.mkv": 621620283, "Fire Force S02E03 MULTi 1080p 10bits ... Punisher694.mkv": 708073136, "Fire Force S02E04 MULTi 1080p ...
创建时间: 2025-05-23 11:43:35 大小:15.55 GB 文件数量:30 热度:1 最近下载:2025-05-23 23:31:02
    ... ": 1178451081, "Fire Force_S02E09_Nocciolo.mkv": 1244557468, "Fire Force_S02E11_Antieroe.mkv": 957930137, "Fire Force_S02E19_Il clan ... Oze.mkv": 767170177, "Fire Force_S02E23_Gatto ...
创建时间: 2025-06-18 08:15:39 大小:22.38 GB 文件数量:24 热度:1 最近下载:2025-06-20 02:58:01
    ... 1080p by stress.mkv": 1163057628, "Fire Force - 2x08 - Malvagità ... by stress.mkv": 1238686169, "Fire Force - 2x14 - Il ... 1080p by stress.mkv": 1173925224, "Fire Force - 2x15 - Tafferuglio tricolore ... by stress.mkv": 1035351027, "Fire Force - 2x17 - Ragazzi, ...
创建时间: 2025-07-08 16:43:19 大小:24.33 GB 文件数量:24 热度:2 最近下载:2025-09-16 20:42:06
    ... 1080p by stress.mkv": 1163057628, "Fire Force - 2x08 - Malvagità ... by stress.mkv": 1238686169, "Fire Force - 2x14 - Il ... 1080p by stress.mkv": 1173925224, "Fire Force - 2x15 - Tafferuglio tricolore ... by stress.mkv": 1035351027, "Fire Force - 2x17 - Ragazzi, ...
创建时间: 2025-08-30 15:45:18 大小:24.33 GB 文件数量:24 热度:5 最近下载:2025-09-17 10:17:11
    ... - Set My Heart On Fire Immediately (2020).jpg": 32410, "perfume-genius ... -set-my-heart-on-fire- ... genius-set-my-heart-on-fire-immediately-2020_meta.sqlite": 31744, ... - Set My Heart On Fire Immediately (2020)_thumb.jpg": 3504}
创建时间: 2025-09-01 08:15:30 大小:121.37 MB 文件数量:57 热度:9 最近下载:2025-10-02 23:39:02